createdAt,value
2017-12-12T00:02:11.065Z,3.82
2017-12-12T00:04:40.854Z,3.74
2017-12-12T00:07:10.387Z,3.68
2017-12-12T00:09:40.199Z,3.63
2017-12-12T00:12:09.739Z,3.62
2017-12-12T00:14:39.519Z,3.68
2017-12-12T00:17:09.297Z,3.81
2017-12-12T00:19:39.081Z,3.96
2017-12-12T00:22:08.304Z,4.09
2017-12-12T00:24:37.864Z,4.17
2017-12-12T00:27:07.631Z,4.26
2017-12-12T00:29:37.471Z,4.31
2017-12-12T00:32:07.257Z,4.44
2017-12-12T00:34:37.043Z,4.52
2017-12-12T00:37:06.837Z,4.61
2017-12-12T00:39:36.632Z,4.59
2017-12-12T00:42:06.408Z,4.62
2017-12-12T00:44:35.936Z,4.62
2017-12-12T00:47:05.719Z,4.62
2017-12-12T00:49:35.496Z,4.76
2017-12-12T00:52:05.275Z,4.84
2017-12-12T00:54:35.067Z,4.87
2017-12-12T00:57:04.956Z,4.86
2017-12-12T00:59:34.743Z,4.89
2017-12-12T01:02:04.907Z,4.87
2017-12-12T01:04:34.584Z,4.91
2017-12-12T01:07:04.460Z,4.91
2017-12-12T01:09:34.249Z,4.91
2017-12-12T01:12:03.956Z,4.91
2017-12-12T01:14:33.730Z,4.87
2017-12-12T01:17:03.498Z,4.86
2017-12-12T01:19:33.282Z,4.84
2017-12-12T01:22:03.070Z,4.84
2017-12-12T01:24:32.840Z,4.84
2017-12-12T01:27:02.640Z,4.79
2017-12-12T01:29:32.452Z,4.80
2017-12-12T01:32:02.213Z,4.77
2017-12-12T01:34:32.017Z,4.76
2017-12-12T01:37:01.788Z,4.77
2017-12-12T01:39:31.613Z,4.75
2017-12-12T01:42:01.056Z,4.75
2017-12-12T01:44:30.564Z,4.74
2017-12-12T01:47:00.103Z,4.75
2017-12-12T01:49:29.564Z,4.74
2017-12-12T01:51:59.024Z,4.75
2017-12-12T01:54:28.569Z,4.78
2017-12-12T01:56:58.029Z,4.79
2017-12-12T01:59:27.485Z,4.82
2017-12-12T02:01:57.030Z,4.84
2017-12-12T02:04:26.496Z,4.89
2017-12-12T02:06:55.941Z,4.90
2017-12-12T02:09:25.738Z,4.93
2017-12-12T02:11:55.173Z,4.90
2017-12-12T02:14:24.643Z,4.90
2017-12-12T02:16:54.442Z,4.96
2017-12-12T02:19:23.627Z,4.95
2017-12-12T02:21:53.061Z,4.95
2017-12-12T02:24:22.543Z,4.91
2017-12-12T02:26:51.993Z,4.85
2017-12-12T02:29:21.447Z,4.87
2017-12-12T02:31:50.625Z,5.01
2017-12-12T02:34:19.824Z,5.01
2017-12-12T02:36:49.281Z,5.01
2017-12-12T02:39:18.732Z,4.99
2017-12-12T02:41:47.921Z,5.05
2017-12-12T02:44:17.119Z,5.13
2017-12-12T02:46:46.581Z,5.25
2017-12-12T02:49:15.796Z,5.26
2017-12-12T02:51:45.571Z,5.22
2017-12-12T02:54:15.049Z,5.32
2017-12-12T02:56:44.244Z,5.33
2017-12-12T02:59:13.744Z,5.34
2017-12-12T03:01:43.177Z,5.26
2017-12-12T03:04:12.369Z,5.31
2017-12-12T03:06:41.827Z,5.25
2017-12-12T03:09:11.292Z,5.24
2017-12-12T03:11:40.809Z,5.21
2017-12-12T03:14:10.014Z,5.09
2017-12-12T03:16:40.074Z,5.09
2017-12-12T03:19:09.586Z,5.02
2017-12-12T03:21:39.114Z,5.01
2017-12-12T03:24:08.888Z,4.88
2017-12-12T03:26:38.354Z,4.82
2017-12-12T03:29:07.802Z,4.89
2017-12-12T03:31:37.260Z,4.81
2017-12-12T03:34:06.717Z,4.79
2017-12-12T03:36:36.167Z,4.77
2017-12-12T03:39:05.394Z,4.74
2017-12-12T03:41:34.846Z,4.72
2017-12-12T03:44:04.043Z,4.75
2017-12-12T03:46:33.539Z,4.64
2017-12-12T03:49:02.995Z,4.70
2017-12-12T03:51:32.422Z,4.59
2017-12-12T03:54:01.917Z,4.63
2017-12-12T03:56:31.360Z,4.61
2017-12-12T03:59:01.149Z,4.62
2017-12-12T04:01:30.606Z,4.55
2017-12-12T04:04:00.190Z,4.49
2017-12-12T04:06:29.987Z,4.57
2017-12-12T04:08:59.174Z,4.46
2017-12-12T04:11:28.364Z,4.51
2017-12-12T04:13:57.898Z,4.49
2017-12-12T04:16:27.392Z,4.47
2017-12-12T04:18:57.184Z,4.59
2017-12-12T04:21:26.970Z,4.54
2017-12-12T04:23:56.464Z,4.47
2017-12-12T04:26:25.949Z,4.54
2017-12-12T04:28:55.746Z,4.49
2017-12-12T04:31:25.571Z,4.46
2017-12-12T04:33:55.369Z,4.52
2017-12-12T04:36:25.166Z,4.60
2017-12-12T04:38:54.650Z,4.56
2017-12-12T04:41:24.121Z,4.44
2017-12-12T04:43:53.592Z,4.52
2017-12-12T04:46:23.037Z,4.44
2017-12-12T04:48:52.871Z,4.44
2017-12-12T04:51:22.403Z,4.41
2017-12-12T04:53:52.189Z,4.41
2017-12-12T04:56:22.245Z,4.44
2017-12-12T04:58:51.743Z,4.43
2017-12-12T05:01:21.528Z,4.45
2017-12-12T05:03:51.301Z,4.43
2017-12-12T05:06:20.776Z,4.59
2017-12-12T05:08:50.224Z,4.65
2017-12-12T05:11:20.020Z,4.55
2017-12-12T05:13:49.833Z,4.42
2017-12-12T05:16:19.294Z,4.39
2017-12-12T05:18:48.784Z,4.42
2017-12-12T05:21:18.257Z,4.48
2017-12-12T05:23:47.714Z,4.60
2017-12-12T05:26:17.176Z,4.63
2017-12-12T05:28:46.729Z,4.45
2017-12-12T05:31:16.534Z,4.41
2017-12-12T05:33:46.012Z,4.37
2017-12-12T05:36:15.472Z,4.35
2017-12-12T05:38:45.037Z,4.30
2017-12-12T05:41:14.903Z,4.30
2017-12-12T05:43:44.398Z,4.43
2017-12-12T05:46:14.194Z,4.43
2017-12-12T05:48:43.996Z,4.35
2017-12-12T05:51:13.805Z,4.32
2017-12-12T05:53:43.287Z,4.32
2017-12-12T05:56:12.775Z,4.29
2017-12-12T05:58:42.241Z,4.29
2017-12-12T06:01:11.708Z,4.29
2017-12-12T06:03:41.626Z,4.37
2017-12-12T06:06:11.084Z,4.35
2017-12-12T06:08:41.146Z,4.41
2017-12-12T06:11:10.608Z,4.42
2017-12-12T06:13:40.349Z,4.36
2017-12-12T06:16:09.871Z,4.38
2017-12-12T06:18:39.343Z,4.39
2017-12-12T06:21:09.138Z,4.45
2017-12-12T06:23:38.578Z,4.59
2017-12-12T06:26:08.305Z,4.63
2017-12-12T06:28:38.246Z,4.55
2017-12-12T06:31:07.929Z,4.55
2017-12-12T06:33:37.743Z,4.52
2017-12-12T06:36:11.656Z,4.42
2017-12-12T06:38:41.461Z,4.45
2017-12-12T06:41:11.286Z,4.36
2017-12-12T06:43:41.128Z,4.31
2017-12-12T06:46:11.041Z,4.33
2017-12-12T06:48:40.848Z,4.35
2017-12-12T06:51:10.397Z,4.40
2017-12-12T06:53:39.646Z,4.37
2017-12-12T06:56:09.589Z,4.40
2017-12-12T06:58:39.417Z,4.44
2017-12-12T07:01:09.186Z,4.42
2017-12-12T07:03:38.817Z,4.42
2017-12-12T07:06:08.312Z,4.42
2017-12-12T07:08:38.014Z,4.40
2017-12-12T07:11:07.730Z,4.44
2017-12-12T07:13:37.247Z,4.42
2017-12-12T07:16:07.144Z,4.39
2017-12-12T07:18:36.684Z,4.44
2017-12-12T07:21:06.170Z,4.66
2017-12-12T07:23:36.003Z,4.57
2017-12-12T07:26:05.815Z,4.53
2017-12-12T07:28:35.709Z,4.53
2017-12-12T07:31:05.688Z,4.48
2017-12-12T07:33:36.363Z,4.45
2017-12-12T07:36:06.243Z,4.54
2017-12-12T07:38:36.209Z,4.66
2017-12-12T07:41:06.132Z,4.62
2017-12-12T07:43:36.019Z,4.65
2017-12-12T07:46:05.908Z,4.57
2017-12-12T07:48:35.740Z,4.61
2017-12-12T07:51:05.581Z,4.57
2017-12-12T07:53:35.440Z,4.55
2017-12-12T07:56:05.278Z,4.56
2017-12-12T07:58:35.147Z,4.65
2017-12-12T08:01:05.050Z,4.71
2017-12-12T08:03:34.887Z,4.74
2017-12-12T08:06:04.461Z,4.65
2017-12-12T08:08:34.398Z,4.63
2017-12-12T08:11:03.819Z,4.77
2017-12-12T08:13:33.719Z,4.87
2017-12-12T08:16:03.539Z,4.74
2017-12-12T08:18:33.375Z,4.72
2017-12-12T08:21:03.215Z,4.78
2017-12-12T08:23:33.055Z,4.77
2017-12-12T08:26:03.126Z,4.83
2017-12-12T08:28:33.032Z,4.78
2017-12-12T08:31:02.867Z,4.77
2017-12-12T08:33:33.616Z,4.73
2017-12-12T08:36:03.426Z,4.75
2017-12-12T08:38:32.992Z,4.83
2017-12-12T08:41:03.036Z,4.90
2017-12-12T08:43:33.006Z,4.96
2017-12-12T08:46:02.864Z,5.05
2017-12-12T08:48:32.683Z,5.00
2017-12-12T08:51:02.588Z,5.06
2017-12-12T08:53:32.378Z,5.22
2017-12-12T08:56:02.177Z,5.24
2017-12-12T08:58:31.988Z,5.25
2017-12-12T09:01:01.781Z,5.32
2017-12-12T09:03:31.711Z,5.38
2017-12-12T09:06:01.700Z,5.48
2017-12-12T09:08:31.928Z,5.53
2017-12-12T09:11:01.700Z,5.31
2017-12-12T09:13:31.511Z,5.27
2017-12-12T09:16:01.340Z,5.48
2017-12-12T09:18:31.894Z,5.57
2017-12-12T09:21:01.355Z,5.53
2017-12-12T09:23:31.152Z,5.63
2017-12-12T09:26:00.939Z,5.69
2017-12-12T09:28:30.684Z,5.62
2017-12-12T09:31:00.501Z,5.52
2017-12-12T09:33:30.328Z,5.54
2017-12-12T09:36:00.163Z,5.55
2017-12-12T09:38:29.993Z,5.65
2017-12-12T09:40:59.461Z,5.59
2017-12-12T09:43:29.032Z,5.62
2017-12-12T09:45:59.738Z,5.69
2017-12-12T09:48:29.529Z,5.52
2017-12-12T09:50:59.342Z,5.62
2017-12-12T09:53:29.145Z,5.75
2017-12-12T09:55:58.969Z,5.77
2017-12-12T09:58:28.740Z,5.70
2017-12-12T10:00:58.570Z,5.69
2017-12-12T10:03:28.457Z,5.61
2017-12-12T10:05:58.091Z,5.65
2017-12-12T10:08:28.481Z,5.69
2017-12-12T10:10:58.268Z,5.71
2017-12-12T10:13:28.052Z,5.68
2017-12-12T10:15:57.834Z,5.55
2017-12-12T10:18:27.644Z,5.21
2017-12-12T10:20:57.444Z,5.01
2017-12-12T10:23:27.257Z,4.89
2017-12-12T10:25:57.058Z,4.85
2017-12-12T10:28:26.729Z,4.74
2017-12-12T10:30:56.599Z,4.75
2017-12-12T10:33:26.461Z,4.76
2017-12-12T10:35:56.371Z,4.63
2017-12-12T10:38:25.839Z,4.67
2017-12-12T10:40:55.664Z,4.75
2017-12-12T10:43:25.240Z,4.66
2017-12-12T10:45:54.565Z,4.66
2017-12-12T10:48:24.103Z,4.55
2017-12-12T10:50:53.676Z,4.50
2017-12-12T10:53:23.225Z,4.64
2017-12-12T10:55:52.633Z,4.73
2017-12-12T10:58:22.622Z,4.87
2017-12-12T11:00:52.117Z,4.95
2017-12-12T11:03:22.070Z,5.11
2017-12-12T11:05:51.592Z,5.09
2017-12-12T11:08:21.452Z,4.97
2017-12-12T11:10:51.341Z,5.15
2017-12-12T11:13:21.378Z,5.28
2017-12-12T11:15:51.490Z,5.25
2017-12-12T11:18:21.424Z,5.03
2017-12-12T11:20:51.349Z,5.03
2017-12-12T11:23:21.431Z,4.95
2017-12-12T11:25:51.353Z,4.99
2017-12-12T11:28:20.737Z,5.11
2017-12-12T11:30:50.344Z,5.05
2017-12-12T11:33:19.670Z,5.09
2017-12-12T11:35:49.626Z,5.29
2017-12-12T11:38:19.194Z,5.38
2017-12-12T11:40:49.034Z,5.31
2017-12-12T11:43:18.968Z,5.37
2017-12-12T11:45:48.916Z,5.33
2017-12-12T11:48:18.835Z,5.20
2017-12-12T11:50:48.757Z,5.22
2017-12-12T11:53:19.069Z,5.35
2017-12-12T11:55:49.541Z,5.36
2017-12-12T11:58:19.506Z,5.30
2017-12-12T12:00:49.661Z,5.08
2017-12-12T12:03:19.159Z,4.98
2017-12-12T12:05:49.131Z,4.90
2017-12-12T12:08:18.983Z,4.87
2017-12-12T12:10:48.466Z,4.82
2017-12-12T12:13:17.776Z,4.93
2017-12-12T12:15:47.362Z,4.87
2017-12-12T12:18:17.272Z,4.91
2017-12-12T12:20:47.055Z,4.83
2017-12-12T12:23:16.645Z,4.94
2017-12-12T12:25:46.267Z,5.04
2017-12-12T12:28:15.841Z,5.05
2017-12-12T12:30:45.625Z,5.16
2017-12-12T12:33:15.436Z,5.24
2017-12-12T12:35:45.302Z,5.15
2017-12-12T12:38:14.925Z,5.14
2017-12-12T12:40:45.553Z,5.21
2017-12-12T12:43:14.831Z,4.98
2017-12-12T12:45:44.673Z,4.99
2017-12-12T12:48:14.785Z,4.97
2017-12-12T12:50:44.285Z,5.01
2017-12-12T12:53:14.126Z,5.00
2017-12-12T12:55:43.955Z,5.00
2017-12-12T12:58:14.138Z,4.95
2017-12-12T13:00:43.810Z,4.97
2017-12-12T13:03:13.694Z,4.88
2017-12-12T13:05:43.594Z,4.88
2017-12-12T13:08:13.445Z,4.97
2017-12-12T13:10:43.301Z,5.00
2017-12-12T13:13:13.394Z,4.95
2017-12-12T13:15:43.479Z,4.88
2017-12-12T13:18:13.827Z,4.88
2017-12-12T13:20:43.368Z,4.89
2017-12-12T13:23:13.203Z,4.82
2017-12-12T13:25:43.199Z,4.87
2017-12-12T13:28:13.073Z,4.73
2017-12-12T13:30:42.908Z,4.73
2017-12-12T13:33:12.728Z,4.59
2017-12-12T13:35:42.245Z,4.60
2017-12-12T13:38:12.304Z,4.60
2017-12-12T13:40:42.164Z,4.58
2017-12-12T13:43:12.027Z,4.55
2017-12-12T13:45:42.106Z,4.44
2017-12-12T13:48:11.747Z,4.48
2017-12-12T13:50:41.329Z,4.44
2017-12-12T13:53:11.414Z,4.42
2017-12-12T13:55:41.242Z,4.43
2017-12-12T13:58:11.061Z,4.35
2017-12-12T14:00:40.861Z,4.34
2017-12-12T14:03:10.673Z,4.32
2017-12-12T14:05:40.543Z,4.25
2017-12-12T14:08:10.377Z,4.24
2017-12-12T14:10:40.346Z,4.33
2017-12-12T14:13:10.338Z,4.31
2017-12-12T14:15:40.305Z,4.27
2017-12-12T14:18:10.368Z,4.19
2017-12-12T14:20:40.300Z,4.12
2017-12-12T14:23:10.239Z,4.08
2017-12-12T14:25:40.059Z,3.98
2017-12-12T14:28:09.869Z,3.99
2017-12-12T14:30:39.748Z,4.01
2017-12-12T14:33:09.552Z,4.04
2017-12-12T14:35:39.354Z,3.98
2017-12-12T14:38:09.164Z,3.98
2017-12-12T14:40:39.008Z,3.95
2017-12-12T14:43:08.889Z,3.93
2017-12-12T14:45:38.728Z,3.91
2017-12-12T14:48:09.331Z,3.93
2017-12-12T14:50:41.026Z,3.91
2017-12-12T14:53:11.368Z,3.88
2017-12-12T14:55:41.186Z,3.85
2017-12-12T14:58:10.989Z,3.83
2017-12-12T15:00:41.663Z,3.79
2017-12-12T15:03:12.293Z,3.74
2017-12-12T15:05:42.884Z,3.71
2017-12-12T15:08:12.771Z,3.72
2017-12-12T15:10:42.845Z,3.70
2017-12-12T15:13:12.850Z,3.69
2017-12-12T15:15:42.662Z,3.66
2017-12-12T15:18:12.927Z,3.64
2017-12-12T15:20:42.830Z,3.66
2017-12-12T15:23:12.661Z,3.62
2017-12-12T15:25:42.462Z,3.61
2017-12-12T15:28:11.983Z,3.58
2017-12-12T15:30:41.794Z,3.57
2017-12-12T15:33:12.031Z,3.52
2017-12-12T15:35:41.710Z,3.49
2017-12-12T15:38:15.220Z,3.52
2017-12-12T15:40:45.195Z,3.48
2017-12-12T15:43:15.100Z,3.41
2017-12-12T15:45:44.939Z,3.51
2017-12-12T15:48:14.781Z,3.36
2017-12-12T15:50:44.257Z,3.32
2017-12-12T15:53:13.708Z,3.39
2017-12-12T15:55:43.514Z,3.46
2017-12-12T15:58:14.082Z,3.49
2017-12-12T16:00:43.683Z,3.55
2017-12-12T16:03:13.498Z,3.53
2017-12-12T16:05:43.324Z,3.52
2017-12-12T16:08:13.133Z,3.50
2017-12-12T16:10:42.950Z,3.48
2017-12-12T16:13:16.610Z,3.45
2017-12-12T16:15:46.438Z,3.33
2017-12-12T16:18:16.220Z,3.46
2017-12-12T16:20:46.055Z,3.45
2017-12-12T16:23:15.867Z,3.42
2017-12-12T16:25:45.711Z,3.40
2017-12-12T16:28:15.537Z,3.45
2017-12-12T16:30:45.926Z,3.55
2017-12-12T16:33:15.738Z,3.55
2017-12-12T16:35:45.535Z,3.64
2017-12-12T16:38:14.985Z,3.65
2017-12-12T16:40:44.496Z,3.63
2017-12-12T16:43:14.293Z,3.59
2017-12-12T16:45:43.920Z,3.45
2017-12-12T16:48:13.631Z,3.39
2017-12-12T16:50:46.333Z,3.41
2017-12-12T16:53:20.323Z,3.39
2017-12-12T16:55:53.100Z,3.35
2017-12-12T16:58:23.078Z,3.29
2017-12-12T17:00:53.491Z,3.31
2017-12-12T17:03:23.405Z,3.29
2017-12-12T17:05:53.969Z,3.27
2017-12-12T17:08:23.775Z,3.17
2017-12-12T17:10:53.836Z,3.14
2017-12-12T17:13:23.774Z,3.12
2017-12-12T17:15:53.717Z,3.08
2017-12-12T17:18:23.526Z,3.04
2017-12-12T17:20:53.392Z,3.04
2017-12-12T17:23:23.281Z,3.00
2017-12-12T17:25:53.333Z,3.08
2017-12-12T17:28:23.191Z,3.07
2017-12-12T17:30:53.370Z,3.14
2017-12-12T17:33:24.031Z,3.06
2017-12-12T17:35:55.275Z,3.06
2017-12-12T17:38:25.087Z,2.99
2017-12-12T17:40:55.128Z,3.11
2017-12-12T17:43:25.162Z,3.01
2017-12-12T17:45:55.046Z,2.98
2017-12-12T17:56:35.115Z,3.10
2017-12-12T17:59:07.135Z,3.01
2017-12-12T18:01:36.969Z,3.05
2017-12-12T18:04:06.875Z,3.05
2017-12-12T18:06:36.897Z,2.89
2017-12-12T18:09:06.690Z,2.83
2017-12-12T18:11:36.840Z,2.88
2017-12-12T18:14:06.700Z,2.83
2017-12-12T18:16:36.739Z,2.87
2017-12-12T18:19:07.169Z,2.88
2017-12-12T18:21:37.042Z,2.81
2017-12-12T18:24:06.935Z,2.89
2017-12-12T18:26:36.724Z,2.83
2017-12-12T18:29:06.554Z,2.79
2017-12-12T18:31:36.373Z,2.71
2017-12-12T18:34:06.442Z,2.74
2017-12-12T18:36:36.528Z,2.75
2017-12-12T18:39:06.323Z,2.79
2017-12-12T18:41:36.012Z,2.72
2017-12-12T18:44:06.036Z,2.69
2017-12-12T18:46:36.056Z,2.68
2017-12-12T18:49:05.915Z,2.66
2017-12-12T18:51:40.112Z,2.56
2017-12-12T18:54:10.018Z,2.64
2017-12-12T18:56:39.838Z,2.61
2017-12-12T18:59:13.920Z,2.53
2017-12-12T19:01:43.820Z,2.54
2017-12-12T19:04:20.044Z,2.45
2017-12-12T19:06:50.902Z,2.41
2017-12-12T19:09:20.772Z,2.41
2017-12-12T19:11:50.321Z,2.32
2017-12-12T19:14:20.220Z,2.24
2017-12-12T19:16:50.035Z,2.24
2017-12-12T19:19:19.830Z,2.16
2017-12-12T19:21:49.555Z,2.10
2017-12-12T19:24:19.363Z,2.18
2017-12-12T19:26:49.399Z,2.13
2017-12-12T19:29:18.982Z,2.17
2017-12-12T19:31:48.800Z,2.16
2017-12-12T19:34:18.665Z,2.03
2017-12-12T19:36:49.507Z,1.97
2017-12-12T19:39:19.544Z,2.00
2017-12-12T19:41:49.167Z,1.94
2017-12-12T19:44:19.815Z,1.94
2017-12-12T19:46:51.509Z,2.05
2017-12-12T19:49:22.053Z,2.01
2017-12-12T20:01:36.750Z,1.86
2017-12-12T20:04:07.564Z,1.86
2017-12-12T20:06:40.632Z,1.84
2017-12-12T20:09:10.593Z,1.81
2017-12-12T20:11:40.392Z,1.75
2017-12-12T20:14:10.600Z,1.83
2017-12-12T20:16:49.464Z,1.90
2017-12-12T20:19:20.515Z,1.77
2017-12-12T20:21:53.325Z,1.69
2017-12-12T20:24:23.161Z,1.61
2017-12-12T20:26:58.499Z,1.59
2017-12-12T20:29:28.574Z,1.51
2017-12-12T20:31:58.485Z,1.49
2017-12-12T20:37:02.532Z,1.52
2017-12-12T20:39:37.102Z,1.50
2017-12-12T20:42:07.182Z,1.52
2017-12-12T20:44:37.097Z,1.42
2017-12-12T20:47:07.107Z,1.38
2017-12-12T20:49:37.001Z,1.37
2017-12-12T20:52:06.667Z,1.35
2017-12-12T20:54:36.630Z,1.40
2017-12-12T20:59:47.763Z,1.42
2017-12-12T21:02:18.535Z,1.44
2017-12-12T21:04:50.360Z,1.43
2017-12-12T21:12:47.958Z,1.60
2017-12-12T21:15:18.513Z,1.68
2017-12-12T21:17:49.174Z,1.57
2017-12-12T21:20:19.194Z,1.63
2017-12-12T21:22:48.995Z,1.68
2017-12-12T21:25:19.422Z,1.84
2017-12-12T21:36:46.255Z,1.63
2017-12-12T21:39:18.556Z,1.79
2017-12-12T21:41:50.890Z,1.90
2017-12-12T21:44:23.081Z,1.99
2017-12-12T21:46:54.876Z,1.90
2017-12-12T21:49:26.216Z,1.81
2017-12-12T21:51:57.874Z,1.83
2017-12-12T21:54:32.143Z,1.86
2017-12-12T21:57:05.677Z,1.89
2017-12-12T21:59:38.153Z,1.90
2017-12-12T22:02:10.497Z,1.81
2017-12-12T22:04:42.578Z,1.75
2017-12-12T22:07:13.957Z,1.81
2017-12-12T22:09:44.876Z,1.82
2017-12-12T22:12:15.986Z,1.66
2017-12-12T22:14:47.577Z,1.62
2017-12-12T22:17:18.395Z,1.53
2017-12-12T22:19:48.368Z,1.63
2017-12-12T22:22:18.293Z,1.66
2017-12-12T22:24:48.464Z,1.72
2017-12-12T22:27:18.895Z,1.68
2017-12-12T22:29:48.570Z,1.68
2017-12-12T22:32:18.918Z,1.65
2017-12-12T22:34:48.906Z,1.53
2017-12-12T22:37:18.776Z,1.43
2017-12-12T22:39:48.694Z,1.32
2017-12-12T22:42:18.485Z,1.24
2017-12-12T22:44:48.484Z,1.29
2017-12-12T22:47:18.398Z,1.30
2017-12-12T22:49:48.216Z,1.31
2017-12-12T22:52:18.069Z,1.28
2017-12-12T22:54:47.930Z,1.29
2017-12-12T22:57:17.861Z,1.36
2017-12-12T22:59:47.737Z,1.44
2017-12-12T23:02:17.257Z,1.66
2017-12-12T23:04:47.148Z,1.62
2017-12-12T23:07:17.004Z,1.59
2017-12-12T23:09:46.897Z,1.60
2017-12-12T23:12:17.091Z,1.65
2017-12-12T23:14:47.163Z,1.80
2017-12-12T23:17:17.072Z,1.88
2017-12-12T23:19:47.040Z,1.80
2017-12-12T23:22:16.939Z,1.73
2017-12-12T23:24:46.857Z,1.68
2017-12-12T23:27:16.412Z,1.63
2017-12-12T23:29:45.927Z,1.65
2017-12-12T23:32:15.509Z,1.64
2017-12-12T23:34:45.586Z,1.51
2017-12-12T23:37:16.052Z,1.62
2017-12-12T23:39:45.973Z,1.63
2017-12-12T23:42:15.828Z,1.59
2017-12-12T23:44:45.754Z,1.52
2017-12-12T23:47:15.637Z,1.43
2017-12-12T23:49:45.475Z,1.30
2017-12-12T23:52:22.868Z,1.09
2017-12-12T23:54:54.734Z,0.98
2017-12-12T23:57:26.129Z,0.88
2017-12-12T23:59:56.029Z,0.83
